Time;durP1;ratioP1;P1;durP2;ratioP2;P2;SDS_P1;SDS_P2;PMS_P1;PMS_P2;Temp;Humidity;BMP_temperature;BMP_pressure;BME280_temperature;BME280_humidity;BME280_pressure;Samples;Min_cycle;Max_cycle;Signal;HPM_P1;HPM_P2
2022/09/30 00:01:25;;;;;;;11.67;9.47;;;9.80;99.90;;;;;;5013733;28;20209;-74
2022/09/30 00:03:54;;;;;;;16.67;11.20;;;9.80;99.90;;;;;;5019253;28;20211;-75
2022/09/30 00:06:21;;;;;;;11.83;9.73;;;9.30;99.90;;;;;;5024319;28;20233;-75
2022/09/30 00:08:49;;;;;;;15.27;10.50;;;9.80;99.90;;;;;;5016644;28;20230;-75
2022/09/30 00:11:18;;;;;;;12.23;10.93;;;9.80;99.90;;;;;;5015703;28;20223;-74
2022/09/30 00:13:47;;;;;;;11.43;9.23;;;9.80;99.90;;;;;;5028933;28;20207;-74
2022/09/30 00:16:15;;;;;;;12.87;9.17;;;9.80;99.90;;;;;;5024398;28;20222;-74
2022/09/30 00:18:43;;;;;;;11.93;10.03;;;9.80;99.90;;;;;;5020343;28;20206;-75
2022/09/30 00:21:14;;;;;;;11.53;9.43;;;9.80;99.90;;;;;;5037937;28;20198;-76
2022/09/30 00:23:41;;;;;;;12.23;10.60;;;9.80;99.90;;;;;;5019563;28;20231;-74
2022/09/30 00:26:12;;;;;;;12.27;9.57;;;9.80;99.90;;;;;;5028978;28;20656;-75
2022/09/30 00:28:40;;;;;;;12.90;10.53;;;9.80;99.90;;;;;;5015508;28;20223;-75
2022/09/30 00:31:11;;;;;;;14.23;10.10;;;9.70;99.90;;;;;;5022329;28;20605;-75
2022/09/30 00:33:38;;;;;;;13.77;10.30;;;9.70;99.90;;;;;;5021644;28;20207;-75
2022/09/30 00:36:05;;;;;;;12.97;11.17;;;9.70;99.90;;;;;;5027315;28;20207;-75
2022/09/30 00:38:33;;;;;;;13.47;10.83;;;9.70;99.90;;;;;;5021190;28;20207;-75
2022/09/30 00:41:01;;;;;;;13.00;11.07;;;9.60;99.90;;;;;;5031044;28;20210;-75
2022/09/30 00:43:44;;;;;;;14.83;10.30;;;9.60;99.90;;;;;;5036091;28;20207;-75
2022/09/30 00:46:26;;;;;;;13.43;10.77;;;9.50;99.90;;;;;;5023036;28;20655;-75
2022/09/30 00:48:55;;;;;;;13.67;10.90;;;9.50;99.90;;;;;;5043345;28;20264;-75
2022/09/30 00:51:29;;;;;;;14.37;10.87;;;9.50;99.90;;;;;;5017312;28;20227;-75
2022/09/30 00:54:00;;;;;;;13.07;10.87;;;9.50;99.90;;;;;;5021986;28;20200;-75
2022/09/30 00:56:29;;;;;;;11.73;9.90;;;9.50;99.90;;;;;;5019851;28;20199;-74
2022/09/30 00:59:01;;;;;;;14.03;10.70;;;9.40;99.90;;;;;;5036331;28;20562;-74
2022/09/30 01:01:28;;;;;;;12.63;10.27;;;9.40;99.90;;;;;;5030606;28;20218;-75
2022/09/30 01:03:58;;;;;;;13.17;10.57;;;9.40;99.90;;;;;;5013332;28;20564;-75
2022/09/30 01:06:25;;;;;;;14.00;10.17;;;9.40;99.90;;;;;;5018191;28;20217;-74
2022/09/30 01:08:54;;;;;;;12.37;10.27;;;9.30;99.90;;;;;;5017253;28;20200;-75
2022/09/30 01:11:22;;;;;;;12.23;9.87;;;9.30;99.90;;;;;;5025530;28;20657;-76
2022/09/30 01:13:53;;;;;;;11.67;10.33;;;9.30;99.90;;;;;;5032778;28;20510;-74
2022/09/30 01:16:37;;;;;;;12.13;10.63;;;9.30;99.90;;;;;;5023575;28;20667;-75
2022/09/30 01:19:26;;;;;;;13.90;10.63;;;9.30;99.90;;;;;;5014517;28;20598;-75
2022/09/30 01:22:17;;;;;;;14.93;9.80;;;9.30;99.90;;;;;;5026345;28;20257;-75
2022/09/30 01:25:06;;;;;;;13.23;10.73;;;9.20;99.90;;;;;;5027607;28;20245;-75
2022/09/30 01:27:51;;;;;;;11.60;9.73;;;9.20;99.90;;;;;;5014459;28;20207;-75
2022/09/30 01:30:21;;;;;;;19.63;10.83;;;9.20;99.90;;;;;;5011648;28;20210;-75
2022/09/30 01:33:17;;;;;;;13.40;10.33;;;9.20;99.90;;;;;;5040048;28;20295;-75
2022/09/30 01:36:12;;;;;;;12.97;10.40;;;9.20;99.90;;;;;;5013167;28;20205;-75
2022/09/30 01:38:48;;;;;;;14.20;11.40;;;9.10;99.90;;;;;;5012942;28;20211;-76
2022/09/30 01:41:24;;;;;;;15.37;10.53;;;9.10;99.90;;;;;;5021825;28;20198;-75
2022/09/30 01:43:58;;;;;;;14.23;10.50;;;9.10;99.90;;;;;;5019257;28;20218;-76
2022/09/30 01:46:34;;;;;;;15.97;11.50;;;9.00;99.90;;;;;;5023236;28;20199;-75
2022/09/30 01:49:11;;;;;;;13.73;11.10;;;9.00;99.90;;;;;;5032214;28;20214;-75
2022/09/30 01:51:43;;;;;;;14.17;11.60;;;9.00;99.90;;;;;;5034527;28;20581;-75
2022/09/30 01:54:17;;;;;;;13.30;11.27;;;9.00;99.90;;;;;;5018450;28;20204;-76
2022/09/30 01:56:47;;;;;;;14.53;12.00;;;9.00;99.90;;;;;;5018102;28;20208;-75
2022/09/30 01:59:19;;;;;;;15.50;12.00;;;8.90;99.90;;;;;;5016591;28;20221;-75
2022/09/30 02:01:49;;;;;;;14.80;11.63;;;8.90;99.90;;;;;;5038371;28;20221;-75
2022/09/30 02:04:26;;;;;;;15.50;11.30;;;8.80;99.90;;;;;;5027942;28;20218;-74
2022/09/30 02:06:59;;;;;;;14.83;11.17;;;8.90;99.90;;;;;;5028598;28;20547;-75
2022/09/30 02:09:34;;;;;;;14.20;12.00;;;8.90;99.90;;;;;;5012342;28;20199;-74
2022/09/30 02:12:06;;;;;;;14.87;11.77;;;9.00;99.90;;;;;;5013126;28;20332;-74
2022/09/30 02:14:38;;;;;;;16.10;12.20;;;9.00;99.90;;;;;;5024102;28;20195;-75
2022/09/30 02:17:09;;;;;;;16.50;11.93;;;8.90;99.90;;;;;;5026920;28;20211;-75
2022/09/30 02:19:42;;;;;;;15.10;12.33;;;8.90;99.90;;;;;;5012262;28;20242;-75
2022/09/30 02:22:14;;;;;;;15.60;11.87;;;8.90;99.90;;;;;;5035198;28;20654;-75
2022/09/30 02:24:44;;;;;;;14.97;11.77;;;8.90;99.90;;;;;;5013516;28;20239;-75
2022/09/30 02:27:17;;;;;;;16.60;12.50;;;8.90;99.90;;;;;;5018801;28;20226;-76
2022/09/30 02:29:49;;;;;;;16.57;12.70;;;8.90;99.90;;;;;;5012707;28;20203;-75
2022/09/30 02:32:20;;;;;;;16.97;11.73;;;8.80;99.90;;;;;;5022327;28;20676;-75
2022/09/30 02:34:52;;;;;;;15.63;12.33;;;8.80;99.90;;;;;;5024200;28;20209;-76
2022/09/30 02:37:24;;;;;;;15.00;12.13;;;8.80;99.90;;;;;;5018441;28;20211;-75
2022/09/30 02:39:56;;;;;;;14.77;12.53;;;8.80;99.90;;;;;;5021801;28;20207;-75
2022/09/30 02:42:27;;;;;;;17.33;13.30;;;8.70;99.90;;;;;;5034809;28;20225;-76
2022/09/30 02:44:56;;;;;;;18.33;12.63;;;8.70;99.90;;;;;;5032058;28;20191;-76
2022/09/30 02:47:30;;;;;;;16.97;12.40;;;8.70;99.90;;;;;;5018510;28;20211;-75
2022/09/30 02:50:05;;;;;;;15.57;12.43;;;8.70;99.90;;;;;;5027242;28;20301;-75
2022/09/30 02:52:45;;;;;;;18.77;13.00;;;8.60;99.90;;;;;;5032667;28;20244;-76
2022/09/30 02:55:31;;;;;;;18.87;13.43;;;8.70;99.90;;;;;;5025838;28;20602;-75
2022/09/30 02:58:05;;;;;;;16.00;12.13;;;8.60;99.90;;;;;;5036752;28;20207;-76
2022/09/30 03:00:34;;;;;;;16.63;13.47;;;8.60;99.90;;;;;;5024103;28;20301;-75
2022/09/30 03:03:05;;;;;;;20.30;13.70;;;8.60;99.90;;;;;;5041622;28;20210;-76
2022/09/30 03:05:43;;;;;;;20.67;14.13;;;8.60;99.90;;;;;;5024135;28;20195;-75
2022/09/30 03:08:11;;;;;;;16.70;13.60;;;8.60;99.90;;;;;;5030684;28;20195;-76
2022/09/30 03:10:41;;;;;;;21.20;13.80;;;8.60;99.90;;;;;;5026705;28;20215;-75
2022/09/30 03:13:21;;;;;;;17.87;13.37;;;8.50;99.90;;;;;;5032058;28;20638;-75
2022/09/30 03:16:01;;;;;;;19.30;13.37;;;8.50;99.90;;;;;;5040673;28;20202;-75
2022/09/30 03:18:45;;;;;;;17.50;13.13;;;8.50;99.90;;;;;;5016941;28;20202;-76
2022/09/30 03:21:26;;;;;;;18.53;13.80;;;8.50;99.90;;;;;;5016162;28;20644;-76
2022/09/30 03:24:20;;;;;;;18.23;13.60;;;8.50;99.90;;;;;;5012114;28;20242;-75
2022/09/30 03:26:54;;;;;;;19.33;14.23;;;8.50;99.90;;;;;;5012564;28;20207;-75
2022/09/30 03:29:26;;;;;;;18.93;14.30;;;8.50;99.90;;;;;;5012873;28;20591;-74
2022/09/30 03:32:02;;;;;;;20.27;15.37;;;8.50;99.90;;;;;;5034621;28;20213;-75
2022/09/30 03:34:36;;;;;;;19.07;14.67;;;8.50;99.90;;;;;;5020206;28;20214;-74
2022/09/30 03:37:14;;;;;;;23.93;16.23;;;8.50;99.90;;;;;;5026439;28;20222;-75
2022/09/30 03:39:53;;;;;;;19.47;15.37;;;8.40;99.90;;;;;;5032885;28;20233;-75
2022/09/30 03:42:27;;;;;;;22.97;15.20;;;8.50;99.90;;;;;;5032616;28;20238;-75
2022/09/30 03:45:02;;;;;;;22.60;16.43;;;8.40;99.90;;;;;;5025304;28;20682;-76
2022/09/30 03:47:32;;;;;;;21.57;15.67;;;8.40;99.90;;;;;;5027770;28;20216;-76
2022/09/30 03:50:02;;;;;;;19.87;16.13;;;8.40;99.90;;;;;;5045477;28;20322;-76
2022/09/30 03:52:33;;;;;;;21.40;15.87;;;8.40;99.90;;;;;;5022063;28;20601;-75
2022/09/30 03:55:04;;;;;;;22.13;16.13;;;8.40;99.90;;;;;;5025482;28;20214;-75
2022/09/30 03:57:31;;;;;;;25.40;17.57;;;8.40;99.90;;;;;;5026428;28;20564;-75
2022/09/30 03:59:58;;;;;;;21.93;15.77;;;8.40;99.90;;;;;;5021856;28;20603;-75
2022/09/30 04:02:26;;;;;;;20.07;15.53;;;8.40;99.90;;;;;;5029092;28;20207;-75
2022/09/30 04:04:53;;;;;;;21.80;16.77;;;8.40;99.90;;;;;;5030759;28;20204;-75
2022/09/30 04:07:20;;;;;;;24.23;17.47;;;8.30;99.90;;;;;;5016399;28;20219;-76
2022/09/30 04:09:48;;;;;;;26.57;18.17;;;8.30;99.90;;;;;;5024151;28;20213;-75
2022/09/30 04:12:15;;;;;;;21.37;16.63;;;8.30;99.90;;;;;;5037404;28;20225;-75
2022/09/30 04:14:41;;;;;;;25.70;17.53;;;8.30;99.90;;;;;;5034812;28;20605;-75
2022/09/30 04:17:08;;;;;;;24.13;17.93;;;8.30;99.90;;;;;;5024176;28;20586;-75
2022/09/30 04:19:38;;;;;;;24.57;18.57;;;8.30;99.90;;;;;;5016331;28;20226;-75
2022/09/30 04:22:05;;;;;;;25.50;18.20;;;8.30;99.90;;;;;;5041388;28;20510;-75
2022/09/30 04:24:32;;;;;;;25.20;18.70;;;8.30;99.90;;;;;;5018019;28;20597;-75
2022/09/30 04:27:00;;;;;;;24.40;18.87;;;8.30;99.90;;;;;;5034670;28;20214;-75
2022/09/30 04:29:27;;;;;;;25.67;18.20;;;8.30;99.90;;;;;;5033706;28;20199;-75
2022/09/30 04:31:54;;;;;;;26.77;19.13;;;8.30;99.90;;;;;;5030177;28;20226;-75
2022/09/30 04:34:21;;;;;;;26.23;18.80;;;8.30;99.90;;;;;;5035224;28;20203;-75
2022/09/30 04:36:48;;;;;;;27.03;19.87;;;8.30;99.90;;;;;;5026109;28;20209;-75
2022/09/30 04:39:15;;;;;;;25.57;18.77;;;8.30;99.90;;;;;;5027179;28;21296;-75
2022/09/30 04:41:41;;;;;;;24.03;18.17;;;8.30;99.90;;;;;;5017135;28;20660;-76
2022/09/30 04:44:10;;;;;;;25.77;19.37;;;8.30;99.90;;;;;;5033737;28;20253;-75
2022/09/30 04:46:37;;;;;;;25.17;17.73;;;8.30;99.90;;;;;;5027113;28;20573;-75
2022/09/30 04:49:05;;;;;;;28.23;19.30;;;8.30;99.90;;;;;;5041321;28;20212;-75
2022/09/30 04:51:32;;;;;;;29.80;19.70;;;8.30;99.90;;;;;;5019344;28;20602;-76
2022/09/30 04:53:59;;;;;;;28.37;19.00;;;8.30;99.90;;;;;;5018819;28;20214;-76
2022/09/30 04:56:26;;;;;;;26.80;19.40;;;8.30;99.90;;;;;;5018127;28;20254;-75
2022/09/30 04:58:53;;;;;;;30.77;20.70;;;8.30;99.90;;;;;;5026187;28;20623;-75
2022/09/30 05:01:21;;;;;;;27.10;20.33;;;8.30;99.90;;;;;;5029216;28;20211;-74
2022/09/30 05:03:49;;;;;;;29.43;20.43;;;8.50;99.90;;;;;;5023532;28;20210;-75
2022/09/30 05:06:16;;;;;;;30.50;20.43;;;8.30;99.90;;;;;;5020054;28;20210;-75
2022/09/30 05:08:43;;;;;;;29.00;20.00;;;8.30;99.90;;;;;;5020353;28;20208;-76
2022/09/30 05:11:13;;;;;;;26.97;19.87;;;8.30;99.90;;;;;;5035967;28;20213;-75
2022/09/30 05:13:41;;;;;;;29.00;20.03;;;8.40;99.90;;;;;;5027206;28;20551;-75
2022/09/30 05:16:09;;;;;;;27.87;20.47;;;8.40;99.90;;;;;;5030695;28;20213;-75
2022/09/30 05:18:38;;;;;;;32.70;19.63;;;8.40;99.90;;;;;;5039036;28;20273;-75
2022/09/30 05:21:05;;;;;;;29.27;19.67;;;8.50;99.90;;;;;;5025218;28;20238;-75
2022/09/30 05:23:32;;;;;;;29.73;20.87;;;8.50;99.90;;;;;;5021070;28;20622;-74
2022/09/30 05:25:59;;;;;;;28.30;20.30;;;8.50;99.90;;;;;;5032589;28;20746;-78
2022/09/30 05:28:26;;;;;;;26.67;18.80;;;8.60;99.90;;;;;;5033786;28;21393;-76
2022/09/30 05:30:58;;;;;;;24.70;17.63;;;8.60;99.90;;;;;;5018861;28;20199;-76
2022/09/30 05:33:24;;;;;;;24.50;17.23;;;8.70;99.90;;;;;;5017029;28;20310;-74
2022/09/30 05:35:53;;;;;;;23.70;17.67;;;8.60;99.90;;;;;;5025714;28;20214;-76
2022/09/30 05:38:19;;;;;;;23.43;17.97;;;8.60;99.90;;;;;;5034749;28;20211;-76
2022/09/30 05:40:46;;;;;;;28.77;18.30;;;8.60;99.90;;;;;;5033209;28;20210;-75
2022/09/30 05:43:13;;;;;;;27.63;18.67;;;8.60;99.90;;;;;;5021601;28;20691;-75
2022/09/30 05:45:40;;;;;;;28.13;18.37;;;8.70;99.90;;;;;;5033374;28;20225;-76
2022/09/30 05:48:06;;;;;;;22.90;17.20;;;8.70;99.90;;;;;;5030950;28;20211;-76
2022/09/30 05:50:33;;;;;;;25.50;18.40;;;8.70;99.90;;;;;;5014010;28;20561;-75
2022/09/30 05:53:02;;;;;;;24.00;18.17;;;8.80;99.90;;;;;;5022495;28;20229;-75
2022/09/30 05:55:28;;;;;;;27.90;19.30;;;8.90;99.90;;;;;;5039008;28;20213;-74
2022/09/30 05:57:55;;;;;;;30.73;20.00;;;8.90;99.90;;;;;;5016702;28;20650;-74
2022/09/30 06:00:22;;;;;;;24.53;18.83;;;8.90;99.90;;;;;;5015006;28;20211;-74
2022/09/30 06:02:52;;;;;;;28.80;20.73;;;9.00;99.90;;;;;;5025494;28;20195;-74
2022/09/30 06:05:18;;;;;;;33.33;21.10;;;9.10;99.90;;;;;;5014321;28;20778;-75
2022/09/30 06:07:45;;;;;;;28.80;20.73;;;9.10;99.90;;;;;;5027401;28;20203;-74
2022/09/30 06:10:13;;;;;;;28.90;19.97;;;9.20;99.90;;;;;;5032577;28;20217;-74
2022/09/30 06:12:40;;;;;;;27.33;20.40;;;9.30;99.90;;;;;;5021514;28;20237;-74
2022/09/30 06:15:08;;;;;;;30.70;19.57;;;9.30;99.90;;;;;;5041369;28;20242;-78
2022/09/30 06:17:35;;;;;;;29.27;20.67;;;9.40;99.90;;;;;;5016348;28;20207;-74
2022/09/30 06:20:04;;;;;;;29.87;19.50;;;9.50;99.90;;;;;;5033784;28;20215;-70
2022/09/30 06:22:34;;;;;;;29.98;20.92;;;9.50;99.90;;;;;;5023945;28;20455;-71
2022/09/30 06:25:02;;;;;;;40.10;26.27;;;9.60;99.90;;;;;;5033472;28;20457;-73
2022/09/30 06:27:30;;;;;;;38.50;24.70;;;9.70;99.90;;;;;;5029727;28;20597;-72
2022/09/30 06:29:57;;;;;;;66.50;33.70;;;9.80;99.90;;;;;;5031827;28;20210;-75
2022/09/30 06:32:25;;;;;;;51.03;30.67;;;9.90;99.90;;;;;;5027176;28;20468;-73
2022/09/30 06:34:54;;;;;;;33.30;23.03;;;9.90;99.90;;;;;;5030667;28;20230;-72
2022/09/30 06:37:21;;;;;;;103.53;40.30;;;10.00;99.90;;;;;;5029278;28;20301;-72
2022/09/30 06:39:49;;;;;;;85.27;36.37;;;10.10;99.90;;;;;;5035327;28;20210;-71
2022/09/30 06:42:15;;;;;;;73.00;34.20;;;10.20;99.90;;;;;;5023581;28;20679;-74
2022/09/30 06:44:44;;;;;;;63.77;29.10;;;10.20;99.90;;;;;;5024437;28;20228;-72
2022/09/30 06:47:12;;;;;;;57.53;29.70;;;10.20;99.90;;;;;;5030026;28;20242;-65
2022/09/30 06:49:39;;;;;;;49.93;27.17;;;10.20;99.90;;;;;;5033726;28;20234;-66
2022/09/30 06:52:06;;;;;;;44.80;24.93;;;10.30;99.90;;;;;;5030621;28;20663;-72
2022/09/30 06:54:33;;;;;;;45.13;23.43;;;10.30;99.90;;;;;;5033270;28;20202;-68
2022/09/30 06:57:01;;;;;;;46.63;23.07;;;10.50;99.90;;;;;;5028701;28;20305;-73
2022/09/30 06:59:27;;;;;;;52.23;24.63;;;10.50;99.90;;;;;;5028490;28;20203;-73
2022/09/30 07:01:55;;;;;;;50.67;26.67;;;10.50;99.90;;;;;;5030565;28;20571;-72
2022/09/30 07:04:23;;;;;;;43.27;23.17;;;10.60;99.90;;;;;;5030935;28;20215;-72
2022/09/30 07:06:50;;;;;;;40.00;21.80;;;10.70;99.90;;;;;;5032856;28;20297;-73
2022/09/30 07:09:17;;;;;;;40.40;22.70;;;10.70;99.90;;;;;;5030351;28;20214;-72
2022/09/30 07:11:44;;;;;;;36.60;22.50;;;10.80;99.90;;;;;;5030605;28;20218;-70
2022/09/30 07:14:12;;;;;;;35.43;20.27;;;10.80;99.90;;;;;;5029631;28;20226;-68
2022/09/30 07:16:39;;;;;;;31.37;18.97;;;10.80;99.90;;;;;;5030869;28;20213;-70
2022/09/30 07:19:07;;;;;;;29.77;18.80;;;10.80;99.90;;;;;;5027255;28;20294;-70
2022/09/30 07:21:34;;;;;;;37.10;21.90;;;10.80;99.90;;;;;;5033000;28;20579;-71
2022/09/30 07:24:01;;;;;;;31.17;19.77;;;10.70;99.90;;;;;;5023480;28;20238;-73
2022/09/30 07:26:29;;;;;;;28.23;17.93;;;10.80;99.90;;;;;;5041585;28;20438;-71
2022/09/30 07:28:56;;;;;;;37.33;22.57;;;10.80;99.90;;;;;;5047874;28;20604;-74
2022/09/30 07:31:25;;;;;;;30.80;18.73;;;11.00;99.90;;;;;;5041513;28;21440;-72
2022/09/30 07:33:53;;;;;;;29.80;18.13;;;11.20;99.90;;;;;;5018437;28;20302;-74
2022/09/30 07:36:26;;;;;;;31.90;19.30;;;11.40;99.90;;;;;;5013888;28;20322;-70
2022/09/30 07:38:54;;;;;;;26.50;18.10;;;11.70;99.90;;;;;;5032031;28;20193;-71
2022/09/30 07:41:26;;;;;;;28.20;18.00;;;11.90;99.90;;;;;;5019054;28;20203;-73
2022/09/30 07:43:55;;;;;;;23.47;16.93;;;12.10;99.90;;;;;;5030561;28;20617;-74
2022/09/30 07:46:24;;;;;;;25.43;16.67;;;12.40;99.90;;;;;;5022470;28;20210;-72
2022/09/30 07:48:55;;;;;;;19.67;13.83;;;12.60;99.90;;;;;;5032420;28;20210;-72
2022/09/30 07:51:26;;;;;;;16.00;12.57;;;12.90;99.90;;;;;;5028124;28;20210;-71
2022/09/30 07:53:55;;;;;;;19.37;13.30;;;13.10;99.90;;;;;;5022409;28;20218;-73
2022/09/30 07:56:23;;;;;;;19.00;13.13;;;13.20;99.90;;;;;;5027369;28;20206;-72
2022/09/30 07:58:53;;;;;;;19.07;12.77;;;13.30;99.90;;;;;;5029040;28;20205;-66
2022/09/30 08:01:20;;;;;;;16.43;13.13;;;13.50;99.90;;;;;;5025673;28;20206;-70
2022/09/30 08:03:48;;;;;;;19.48;15.60;;;13.60;99.90;;;;;;5028278;28;20531;-70
2022/09/30 08:06:18;;;;;;;18.37;13.50;;;13.80;99.90;;;;;;5025950;28;20272;-70
2022/09/30 08:08:46;;;;;;;20.97;14.53;;;14.00;99.90;;;;;;5027688;28;20207;-72
2022/09/30 08:11:14;;;;;;;19.10;13.93;;;14.00;99.90;;;;;;5024778;28;20451;-72
2022/09/30 08:13:41;;;;;;;31.83;16.67;;;14.10;99.90;;;;;;5026176;28;20226;-70
2022/09/30 08:16:09;;;;;;;17.37;12.87;;;14.10;99.90;;;;;;5031760;28;20225;-71
2022/09/30 08:18:36;;;;;;;21.45;16.30;;;14.10;99.90;;;;;;5028256;28;20461;-71
2022/09/30 08:21:04;;;;;;;18.27;12.63;;;14.10;99.90;;;;;;5028938;28;20218;-71
2022/09/30 08:23:31;;;;;;;19.63;13.43;;;14.00;99.90;;;;;;5031333;28;20269;-70
2022/09/30 08:26:03;;;;;;;20.20;13.33;;;14.00;99.90;;;;;;5031982;28;20220;-69
2022/09/30 08:28:31;;;;;;;18.77;13.43;;;13.90;99.90;;;;;;5032818;28;20199;-70
2022/09/30 08:31:04;;;;;;;22.57;13.97;;;13.90;99.90;;;;;;5023379;28;20230;-69
2022/09/30 08:33:31;;;;;;;22.87;14.33;;;13.90;99.90;;;;;;5030152;28;20207;-70
2022/09/30 08:36:02;;;;;;;16.67;12.93;;;13.90;99.90;;;;;;5030482;28;20654;-68
2022/09/30 08:38:29;;;;;;;20.20;14.27;;;13.90;99.90;;;;;;5030197;28;20210;-71
2022/09/30 08:41:08;;;;;;;19.30;13.80;;;14.00;99.90;;;;;;5032446;28;20643;-69
2022/09/30 08:43:44;;;;;;;21.33;14.43;;;14.00;99.90;;;;;;5030058;28;20195;-66
2022/09/30 08:46:19;;;;;;;17.93;12.20;;;14.00;99.90;;;;;;5031590;28;20205;-68
2022/09/30 08:48:53;;;;;;;20.03;14.10;;;14.00;99.90;;;;;;5029612;28;20199;-69
2022/09/30 08:51:31;;;;;;;27.00;19.07;;;14.00;99.90;;;;;;5030703;28;20629;-67
2022/09/30 08:54:02;;;;;;;29.50;16.87;;;14.00;99.90;;;;;;5025655;28;20219;-68
2022/09/30 08:56:31;;;;;;;25.00;16.13;;;13.90;99.90;;;;;;5032431;28;20718;-66
2022/09/30 08:59:05;;;;;;;21.50;14.80;;;13.80;99.90;;;;;;5038978;28;20206;-73
2022/09/30 09:01:33;;;;;;;21.47;15.43;;;13.70;99.90;;;;;;5034808;28;20195;-71
2022/09/30 09:04:02;;;;;;;21.67;14.97;;;13.60;99.90;;;;;;5038247;28;20213;-70
2022/09/30 09:06:36;;;;;;;17.80;13.80;;;13.50;99.90;;;;;;5030508;28;20218;-72
2022/09/30 09:09:26;;;;;;;21.67;14.50;;;13.40;99.90;;;;;;5032040;28;20218;-70
2022/09/30 09:12:07;;;;;;;18.30;14.10;;;13.30;99.90;;;;;;5025823;28;20672;-74
2022/09/30 09:14:44;;;;;;;18.03;14.67;;;13.30;99.90;;;;;;5043899;28;20300;-73
2022/09/30 09:17:20;;;;;;;23.47;15.83;;;13.30;99.90;;;;;;5031924;28;20599;-71
2022/09/30 09:19:56;;;;;;;21.07;14.87;;;13.20;99.90;;;;;;5032977;28;20207;-72
2022/09/30 09:22:25;;;;;;;19.63;14.67;;;13.20;99.90;;;;;;5023316;28;20233;-73
2022/09/30 09:24:54;;;;;;;26.03;14.73;;;13.20;99.90;;;;;;5026983;28;20202;-73
2022/09/30 09:27:26;;;;;;;21.83;15.30;;;13.20;99.90;;;;;;5031048;28;20241;-70
2022/09/30 09:30:05;;;;;;;23.63;16.70;;;13.20;99.90;;;;;;5029456;28;20557;-70
2022/09/30 09:32:32;;;;;;;28.90;15.97;;;13.20;99.90;;;;;;5026462;28;20226;-70
2022/09/30 09:35:01;;;;;;;21.37;16.47;;;13.20;99.90;;;;;;5030439;28;20237;-73
2022/09/30 09:40:24;;;;;;;17.50;14.97;;;13.30;99.90;;;;;;5009052;28;20662;-72
2022/09/30 09:43:07;;;;;;;17.87;14.10;;;13.30;99.90;;;;;;5034600;28;20199;-72
2022/09/30 09:45:41;;;;;;;16.97;13.13;;;13.40;99.90;;;;;;5025086;28;20235;-71
2022/09/30 09:48:11;;;;;;;18.63;13.90;;;13.40;99.90;;;;;;5031000;28;20678;-73
2022/09/30 09:50:47;;;;;;;18.83;14.33;;;13.40;99.90;;;;;;5026604;28;20233;-72
2022/09/30 09:53:36;;;;;;;19.93;14.60;;;13.40;99.90;;;;;;5034209;28;20296;-71
2022/09/30 09:56:17;;;;;;;21.30;15.23;;;13.50;99.90;;;;;;5027184;28;20217;-73
2022/09/30 09:59:12;;;;;;;17.40;13.53;;;13.60;99.90;;;;;;5029940;28;20253;-70
2022/09/30 10:01:41;;;;;;;17.70;13.97;;;13.60;99.90;;;;;;5024394;28;20220;-71
2022/09/30 10:04:15;;;;;;;16.27;12.90;;;13.70;99.90;;;;;;5039653;28;20313;-73
2022/09/30 10:06:48;;;;;;;17.13;12.70;;;13.80;99.90;;;;;;5034698;28;20209;-71
2022/09/30 10:09:24;;;;;;;15.30;11.93;;;14.10;99.90;;;;;;5030314;28;20680;-72
2022/09/30 10:11:51;;;;;;;17.30;12.97;;;14.40;99.90;;;;;;5035078;28;20642;-73
2022/09/30 10:14:21;;;;;;;18.07;12.40;;;14.80;99.90;;;;;;5029514;28;20229;-71
2022/09/30 10:16:48;;;;;;;16.33;12.33;;;15.10;99.90;;;;;;5026952;28;20222;-72
2022/09/30 10:19:20;;;;;;;14.93;12.37;;;15.40;99.90;;;;;;5034713;28;20215;-72
2022/09/30 10:21:47;;;;;;;14.20;11.03;;;15.60;99.90;;;;;;5031848;28;20194;-76
2022/09/30 10:24:28;;;;;;;15.83;11.47;;;15.80;99.90;;;;;;5031677;28;20235;-71
2022/09/30 10:26:55;;;;;;;13.07;10.60;;;15.70;99.90;;;;;;5038651;28;20238;-70
2022/09/30 10:29:30;;;;;;;13.27;10.90;;;15.80;99.90;;;;;;5034622;28;20210;-73
2022/09/30 10:31:57;;;;;;;15.88;10.25;;;15.70;99.90;;;;;;5022427;28;20207;-72
2022/09/30 10:34:28;;;;;;;12.57;10.60;;;15.50;99.90;;;;;;5034077;28;20233;-72
2022/09/30 10:36:56;;;;;;;13.50;9.90;;;15.40;99.90;;;;;;5038429;28;20210;-73
2022/09/30 10:39:26;;;;;;;12.90;9.07;;;15.30;99.90;;;;;;5037577;28;20210;-71
2022/09/30 10:42:17;;;;;;;10.53;8.30;;;15.20;99.90;;;;;;5040830;28;20226;-75
2022/09/30 10:44:48;;;;;;;10.90;8.73;;;15.20;99.90;;;;;;5028534;28;20203;-71
2022/09/30 10:47:18;;;;;;;10.27;8.83;;;15.10;99.90;;;;;;5044295;28;20208;-73
2022/09/30 10:49:48;;;;;;;10.87;8.47;;;15.10;99.90;;;;;;5040276;28;20580;-72
2022/09/30 10:52:19;;;;;;;9.20;8.20;;;15.20;99.90;;;;;;5036603;28;20205;-71
2022/09/30 10:54:50;;;;;;;9.23;7.23;;;15.30;99.90;;;;;;5028719;28;20218;-71
2022/09/30 10:57:21;;;;;;;9.15;7.85;;;15.40;99.90;;;;;;5029568;28;20452;-71
2022/09/30 10:59:52;;;;;;;11.73;7.60;;;15.50;99.90;;;;;;5027719;28;20211;-73
2022/09/30 11:02:29;;;;;;;13.80;8.83;;;15.50;99.90;;;;;;5016942;28;21012;-75
2022/09/30 11:05:05;;;;;;;15.73;9.60;;;15.60;99.90;;;;;;5031322;28;20208;-75
2022/09/30 11:07:39;;;;;;;13.60;8.50;;;15.60;99.90;;;;;;5028497;28;20317;-75
2022/09/30 11:10:14;;;;;;;21.57;12.93;;;15.50;99.90;;;;;;5030347;28;20205;-74
2022/09/30 11:12:47;;;;;;;19.23;12.40;;;15.40;99.90;;;;;;5028575;28;20441;-73
2022/09/30 11:15:22;;;;;;;14.68;10.85;;;15.30;99.90;;;;;;5022834;28;20455;-72
2022/09/30 11:17:54;;;;;;;10.43;8.02;;;15.20;99.90;;;;;;5026112;28;20198;-69
2022/09/30 11:20:25;;;;;;;15.57;9.18;;;15.10;99.90;;;;;;5024864;28;20195;-68
2022/09/30 11:22:56;;;;;;;14.03;9.23;;;14.90;99.90;;;;;;5024927;28;20361;-72
2022/09/30 11:25:32;;;;;;;13.73;8.45;;;14.90;99.90;;;;;;5023526;28;20910;-71
2022/09/30 11:28:18;;;;;;;13.60;7.93;;;14.90;99.90;;;;;;5025158;28;20206;-70
2022/09/30 11:30:55;;;;;;;9.27;6.67;;;14.80;99.90;;;;;;5027601;28;20202;-71
2022/09/30 11:33:37;;;;;;;13.05;9.70;;;14.80;99.90;;;;;;5027909;28;20456;-69
2022/09/30 11:36:09;;;;;;;7.20;6.50;;;14.80;99.90;;;;;;5028700;28;20203;-71
2022/09/30 11:39:01;;;;;;;6.60;6.00;;;14.80;99.90;;;;;;5025290;28;20214;-69
2022/09/30 11:41:32;;;;;;;13.37;7.20;;;14.80;99.90;;;;;;5025551;28;20203;-70
2022/09/30 11:44:13;;;;;;;25.00;12.80;;;14.90;99.90;;;;;;5032096;28;20511;-71
2022/09/30 11:47:10;;;;;;;13.00;7.43;;;14.90;99.90;;;;;;5031676;28;20207;-71
2022/09/30 11:49:46;;;;;;;9.45;7.20;;;14.90;99.90;;;;;;5020885;28;20453;-71
2022/09/30 11:52:21;;;;;;;18.60;11.23;;;14.80;99.90;;;;;;5021210;28;20945;-71
2022/09/30 11:55:08;;;;;;;10.47;7.23;;;14.80;99.90;;;;;;5033788;28;20213;-71
2022/09/30 11:57:44;;;;;;;14.13;8.30;;;14.70;99.90;;;;;;5031350;28;20563;-68
2022/09/30 12:00:16;;;;;;;7.60;5.90;;;14.80;99.90;;;;;;5032165;28;20206;-67
2022/09/30 12:02:47;;;;;;;10.40;6.87;;;14.80;99.90;;;;;;5027639;28;20202;-67
2022/09/30 12:05:18;;;;;;;20.03;7.40;;;14.90;99.90;;;;;;5021144;28;20257;-67
2022/09/30 12:07:49;;;;;;;12.87;7.63;;;14.90;99.90;;;;;;5030338;28;20210;-67
2022/09/30 12:10:21;;;;;;;9.83;6.83;;;15.00;99.90;;;;;;5027699;28;20199;-68
2022/09/30 12:12:51;;;;;;;8.60;5.20;;;15.00;99.90;;;;;;5030400;28;20655;-65
2022/09/30 12:15:22;;;;;;;9.90;7.90;;;15.00;99.90;;;;;;5033346;28;20218;-67
2022/09/30 12:17:57;;;;;;;6.17;5.57;;;15.00;99.90;;;;;;5026160;28;20298;-67
2022/09/30 12:20:29;;;;;;;6.30;5.00;;;14.90;99.90;;;;;;5030668;28;20202;-66
2022/09/30 12:23:01;;;;;;;7.63;5.50;;;14.80;99.90;;;;;;5032361;28;20253;-67
2022/09/30 12:25:32;;;;;;;10.43;5.13;;;14.80;99.90;;;;;;5032906;28;20704;-65
2022/09/30 12:30:15;;;;;;;9.20;5.93;;;14.80;99.90;;;;;;5025653;28;20217;-65
2022/09/30 12:31:12;;;;;;;6.20;5.20;;;14.80;99.90;;;;;;5034784;28;20373;-67
2022/09/30 12:34:02;;;;;;;6.57;5.33;;;14.90;99.90;;;;;;5030279;28;20281;-66
2022/09/30 12:36:59;;;;;;;5.77;5.17;;;15.00;99.90;;;;;;5023544;28;20213;-68
2022/09/30 12:39:48;;;;;;;10.00;5.50;;;15.00;99.90;;;;;;5027070;28;20562;-66
2022/09/30 12:42:44;;;;;;;6.20;4.97;;;14.90;99.90;;;;;;5020326;28;20206;-67
2022/09/30 12:45:53;;;;;;;6.93;5.80;;;14.90;99.90;;;;;;5028996;28;20631;-69
2022/09/30 12:48:24;;;;;;;6.87;5.63;;;14.80;99.90;;;;;;5001626;28;20213;-68
2022/09/30 12:50:53;;;;;;;6.47;5.50;;;14.80;99.90;;;;;;5036549;28;20206;-68
2022/09/30 12:53:24;;;;;;;6.90;5.83;;;14.90;99.90;;;;;;5016748;28;20253;-66
2022/09/30 12:55:53;;;;;;;7.97;5.73;;;14.90;99.90;;;;;;5019794;28;20210;-68
2022/09/30 12:58:24;;;;;;;7.60;5.90;;;15.10;99.90;;;;;;5037117;28;20214;-67
2022/09/30 13:01:04;;;;;;;6.47;5.63;;;15.20;99.90;;;;;;5032707;28;20199;-67
2022/09/30 13:03:49;;;;;;;7.03;5.37;;;15.20;99.90;;;;;;5036456;28;20325;-68